Dobrodošli na spletni strani vremenske postaje Senovo. Vse informacije so informativnega značaja, saj vremenska postaja ni del državne mreže meteoroloških postaj. AKTUALNIH OBVESTIL NI.


Sneg/Led Od: 23-02-2018 00:00 Do: 23:59 Opozorilo za: Sneg/Led Stopnja: Rumena info button

Pogled proti Armezu več informacij Pogled proti Armezu


Lisca več informacij Lisca


Radar strel več informacij blitzortung!


opozorilo za sneg/led več informacij rain snow radar


Obiščite še:

Template documentation
and downloads

And another site



Weather Underground, zgodovina - Tekstovno

Dnevni povzetek za Januar 6, 2018 Enote:  Obe    Angleško   Metrično
« Predhodni Dan
Naslednji Dan »
Dnevni Tedenski Mesečni Letni Po meri
  Višja: Nižja: Povprečje:
Temperatura: TemperatureC °F /  -17.8 °C 4.2 °F /  -15.4 °C 8.5 °F /  -13.1 °C
Točka rosišča: DewpointC °F /  -17.8 °C 3.7 °F /  -15.7 °C 7.2 °F /  -13.8 °C
Vlažnost: Humidity % 73 % 92 %
Hitrost vetra: WindSpeedKMH mph /  0 km/h - 1 mph /  1.6 km/h
Sunki vetra: WindSpeedGustKMH mph /  0 km/h - -
Veter:- - WSW
Zračni tlak: PressurehPa in /  0 hPa 1008.0 in /  34130.9 hPa -
Padavine: 0.0 in /  0 mm    
Historical Graphs
 
 
Tabelarni podarki za Januar 6, 2018
Čas Temperatura Točka rosišča Zračni tlak Veter Hitrost vetra Sunki vetra Vlažnost Intenziteta padavin (urna)
TemperatureC °F /  -17.8 °C DewpointC °F /  -17.8 °C PressurehPa in /  0 hPa Calm     Humidity % HourlyPrecipMM in /  0 mm
00:02 7.7 °F /  -13.5 °C 7.1 °F /  -13.8 °C 1008.0 in /  34130.9 hPa Calm     96 % 0.0 in /  0 mm
00:07 7.7 °F /  -13.5 °C 7.1 °F /  -13.8 °C 1008.0 in /  34130.9 hPa Calm     96 % 0.0 in /  0 mm
00:09 7.7 °F /  -13.5 °C 7.1 °F /  -13.8 °C 1008.0 in /  34130.9 hPa Calm     96 % 0.0 in /  0 mm
00:14 7.8 °F /  -13.4 °C 7.2 °F /  -13.8 °C 1008.0 in /  34130.9 hPa Calm     96 % 0.0 in /  0 mm
00:15 7.8 °F /  -13.4 °C 7.2 °F /  -13.8 °C 1008.0 in /  34130.9 hPa Calm     96 % 0.0 in /  0 mm
00:20 7.8 °F /  -13.4 °C 7.2 °F /  -13.8 °C 1008.0 in /  34130.9 hPa Calm     96 % 0.0 in /  0 mm
00:25 7.8 °F /  -13.4 °C 7.2 °F /  -13.8 °C 1008.0 in /  34130.9 hPa Calm     96 % 0.0 in /  0 mm
00:26 7.8 °F /  -13.4 °C 7.2 °F /  -13.8 °C 1008.0 in /  34130.9 hPa Calm     96 % 0.0 in /  0 mm
00:31 7.9 °F /  -13.4 °C 7.3 °F /  -13.7 °C 1008.0 in /  34130.9 hPa Calm     96 % 0.0 in /  0 mm
00:34 7.9 °F /  -13.4 °C 7.3 °F /  -13.7 °C 1008.0 in /  34130.9 hPa Calm     96 % 0.0 in /  0 mm
00:39 7.9 °F /  -13.4 °C 7.3 °F /  -13.7 °C 1008.0 in /  34130.9 hPa Calm     96 % 0.0 in /  0 mm
00:43 7.9 °F /  -13.4 °C 7.3 °F /  -13.7 °C 1008.0 in /  34130.9 hPa Calm     96 % 0.0 in /  0 mm
00:48 7.9 °F /  -13.4 °C 7.3 °F /  -13.7 °C 1008.0 in /  34130.9 hPa Calm     96 % 0.0 in /  0 mm
00:53 7.9 °F /  -13.4 °C 7.3 °F /  -13.7 °C 1008.0 in /  34130.9 hPa Calm     96 % 0.0 in /  0 mm
00:56 7.9 °F /  -13.4 °C 7.3 °F /  -13.7 °C 1008.0 in /  34130.9 hPa Calm     96 % 0.0 in /  0 mm
01:01 7.9 °F /  -13.4 °C 7.3 °F /  -13.7 °C 1008.0 in /  34130.9 hPa Calm     96 % 0.0 in /  0 mm
01:02 7.9 °F /  -13.4 °C 7.3 °F /  -13.7 °C 1008.0 in /  34130.9 hPa Calm     96 % 0.0 in /  0 mm
01:07 7.9 °F /  -13.4 °C 7.3 °F /  -13.7 °C 1008.0 in /  34130.9 hPa Calm     96 % 0.0 in /  0 mm
01:10 7.9 °F /  -13.4 °C 7.3 °F /  -13.7 °C 1008.0 in /  34130.9 hPa Calm     96 % 0.0 in /  0 mm
01:15 7.9 °F /  -13.4 °C 7.3 °F /  -13.7 °C 1008.0 in /  34130.9 hPa Calm     96 % 0.0 in /  0 mm
01:19 7.9 °F /  -13.4 °C 7.3 °F /  -13.7 °C 1008.0 in /  34130.9 hPa Calm     96 % 0.0 in /  0 mm
01:24 7.9 °F /  -13.4 °C 7.3 °F /  -13.7 °C 1008.0 in /  34130.9 hPa Calm     96 % 0.0 in /  0 mm
01:28 7.9 °F /  -13.4 °C 7.3 °F /  -13.7 °C 1008.0 in /  34130.9 hPa Calm     96 % 0.0 in /  0 mm
01:33 7.9 °F /  -13.4 °C 7.3 °F /  -13.7 °C 1008.0 in /  34130.9 hPa Calm     96 % 0.0 in /  0 mm
01:34 7.9 °F /  -13.4 °C 7.3 °F /  -13.7 °C 1008.0 in /  34130.9 hPa Calm     96 % 0.0 in /  0 mm
01:39 7.9 °F /  -13.4 °C 7.3 °F /  -13.7 °C 1008.0 in /  34130.9 hPa Calm     96 % 0.0 in /  0 mm
01:44 7.8 °F /  -13.4 °C 7.2 °F /  -13.8 °C 1008.0 in /  34130.9 hPa Calm     96 % 0.0 in /  0 mm
01:49 7.8 °F /  -13.4 °C 7.2 °F /  -13.8 °C 1008.0 in /  34130.9 hPa Calm     96 % 0.0 in /  0 mm
01:50 7.8 °F /  -13.4 °C 7.2 °F /  -13.8 °C 1008.0 in /  34130.9 hPa Calm     96 % 0.0 in /  0 mm
01:52 7.8 °F /  -13.4 °C 7.2 °F /  -13.8 °C 1008.0 in /  34130.9 hPa Calm     96 % 0.0 in /  0 mm
01:57 7.8 °F /  -13.4 °C 7.2 °F /  -13.8 °C 1008.0 in /  34130.9 hPa Calm     96 % 0.0 in /  0 mm
02:00 7.7 °F /  -13.5 °C 7.1 °F /  -13.8 °C 1008.0 in /  34130.9 hPa Calm     96 % 0.0 in /  0 mm
02:05 7.8 °F /  -13.4 °C 7.2 °F /  -13.8 °C 1008.0 in /  34130.9 hPa Calm     96 % 0.0 in /  0 mm
02:08 7.7 °F /  -13.5 °C 7.1 °F /  -13.8 °C 1008.0 in /  34130.9 hPa Calm     96 % 0.0 in /  0 mm
02:13 7.7 °F /  -13.5 °C 7.1 °F /  -13.8 °C 1008.0 in /  34130.9 hPa Calm     96 % 0.0 in /  0 mm
02:18 7.7 °F /  -13.5 °C 7.1 °F /  -13.8 °C 1008.0 in /  34130.9 hPa Calm     96 % 0.0 in /  0 mm
02:24 7.7 °F /  -13.5 °C 7.1 °F /  -13.8 °C 1008.0 in /  34130.9 hPa Calm     96 % 0.0 in /  0 mm
02:25 7.7 °F /  -13.5 °C 7.1 °F /  -13.8 °C 1008.0 in /  34130.9 hPa Calm     96 % 0.0 in /  0 mm
02:26 7.7 °F /  -13.5 °C 7.1 °F /  -13.8 °C 1008.0 in /  34130.9 hPa Calm     96 % 0.0 in /  0 mm
02:30 7.7 °F /  -13.5 °C 7.1 °F /  -13.8 °C 1008.0 in /  34130.9 hPa Calm   2.1 mph /  3.4 km/h 96 % 0.0 in /  0 mm
02:35 7.7 °F /  -13.5 °C 7.1 °F /  -13.8 °C 1008.0 in /  34130.9 hPa Calm   2.1 mph /  3.4 km/h 96 % 0.0 in /  0 mm
02:36 7.7 °F /  -13.5 °C 7.1 °F /  -13.8 °C 1008.0 in /  34130.9 hPa Calm   2.1 mph /  3.4 km/h 96 % 0.0 in /  0 mm
02:41 7.7 °F /  -13.5 °C 7.1 °F /  -13.8 °C 1008.0 in /  34130.9 hPa Calm     96 % 0.0 in /  0 mm
02:46 7.7 °F /  -13.5 °C 7.1 °F /  -13.8 °C 1008.0 in /  34130.9 hPa Calm     96 % 0.0 in /  0 mm
02:52 7.7 °F /  -13.5 °C 7.1 °F /  -13.8 °C 1008.0 in /  34130.9 hPa Calm     96 % 0.0 in /  0 mm
02:53 7.7 °F /  -13.5 °C 7.1 °F /  -13.8 °C 1008.0 in /  34130.9 hPa Calm     96 % 0.0 in /  0 mm
02:58 7.7 °F /  -13.5 °C 7.1 °F /  -13.8 °C 1008.0 in /  34130.9 hPa West 1.1 mph /  1.8 km/h 4.0 mph /  6.4 km/h 96 % 0.0 in /  0 mm
02:59 7.7 °F /  -13.5 °C 7.1 °F /  -13.8 °C 1008.0 in /  34130.9 hPa West 1.3 mph /  2.1 km/h 4.0 mph /  6.4 km/h 96 % 0.0 in /  0 mm
03:04 7.5 °F /  -13.6 °C 6.9 °F /  -13.9 °C 1008.0 in /  34130.9 hPa West 1.3 mph /  2.1 km/h 4.0 mph /  6.4 km/h 96 % 0.0 in /  0 mm
03:05 7.5 °F /  -13.6 °C 6.9 °F /  -13.9 °C 1008.0 in /  34130.9 hPa West 1.1 mph /  1.8 km/h 4.0 mph /  6.4 km/h 96 % 0.0 in /  0 mm
03:10 7.4 °F /  -13.7 °C 6.8 °F /  -14 °C 1008.0 in /  34130.9 hPa Calm   3.5 mph /  5.6 km/h 96 % 0.0 in /  0 mm
03:17 7.1 °F /  -13.8 °C 6.5 °F /  -14.2 °C 1008.0 in /  34130.9 hPa WSW 0.2 mph /  0.3 km/h 3.5 mph /  5.6 km/h 96 % 0.0 in /  0 mm
03:18 7.0 °F /  -13.9 °C 6.4 °F /  -14.2 °C 1008.0 in /  34130.9 hPa WSW 0.2 mph /  0.3 km/h 3.5 mph /  5.6 km/h 96 % 0.0 in /  0 mm
03:23 6.9 °F /  -13.9 °C 6.3 °F /  -14.3 °C 1008.0 in /  34130.9 hPa Calm     96 % 0.0 in /  0 mm
03:28 6.7 °F /  -14.1 °C 6.1 °F /  -14.4 °C 1008.0 in /  34130.9 hPa WSW 0.5 mph /  0.8 km/h 5.5 mph /  8.9 km/h 96 % 0.0 in /  0 mm
03:33 6.4 °F /  -14.2 °C 5.8 °F /  -14.6 °C 1008.0 in /  34130.9 hPa WSW 0.5 mph /  0.8 km/h 5.5 mph /  8.9 km/h 96 % 0.0 in /  0 mm
03:38 6.3 °F /  -14.3 °C 5.7 °F /  -14.6 °C 1008.0 in /  34130.9 hPa Calm     96 % 0.0 in /  0 mm
03:42 6.2 °F /  -14.3 °C 5.6 °F /  -14.7 °C 1008.0 in /  34130.9 hPa Calm     96 % 0.0 in /  0 mm
03:47 6.2 °F /  -14.3 °C 5.6 °F /  -14.7 °C 1008.0 in /  34130.9 hPa Calm     96 % 0.0 in /  0 mm
03:49 6.1 °F /  -14.4 °C 5.5 °F /  -14.7 °C 1008.0 in /  34130.9 hPa Calm     96 % 0.0 in /  0 mm
03:54 6.1 °F /  -14.4 °C 5.5 °F /  -14.7 °C 1008.0 in /  34130.9 hPa Calm     96 % 0.0 in /  0 mm
03:59 6.1 °F /  -14.4 °C 5.5 °F /  -14.7 °C 1008.0 in /  34130.9 hPa Calm     96 % 0.0 in /  0 mm
04:04 6.1 °F /  -14.4 °C 5.5 °F /  -14.7 °C 1008.0 in /  34130.9 hPa Calm     96 % 0.0 in /  0 mm
04:07 6.1 °F /  -14.4 °C 5.5 °F /  -14.7 °C 1008.0 in /  34130.9 hPa Calm     96 % 0.0 in /  0 mm
04:12 6.0 °F /  -14.4 °C 5.4 °F /  -14.8 °C 1008.0 in /  34130.9 hPa Calm     96 % 0.0 in /  0 mm
04:18 6.0 °F /  -14.4 °C 5.4 °F /  -14.8 °C 1008.0 in /  34130.9 hPa Calm     96 % 0.0 in /  0 mm
04:21 6.0 °F /  -14.4 °C 5.4 °F /  -14.8 °C 1008.0 in /  34130.9 hPa Calm     96 % 0.0 in /  0 mm
04:24 5.8 °F /  -14.6 °C 5.2 °F /  -14.9 °C 1008.0 in /  34130.9 hPa Calm     96 % 0.0 in /  0 mm
04:29 5.7 °F /  -14.6 °C 5.1 °F /  -14.9 °C 1008.0 in /  34130.9 hPa Calm     96 % 0.0 in /  0 mm
04:35 5.5 °F /  -14.7 °C 4.9 °F /  -15.1 °C 1008.0 in /  34130.9 hPa Calm     96 % 0.0 in /  0 mm
04:37 5.4 °F /  -14.8 °C 4.8 °F /  -15.1 °C 1008.0 in /  34130.9 hPa Calm     96 % 0.0 in /  0 mm
04:42 5.3 °F /  -14.8 °C 4.7 °F /  -15.2 °C 1008.0 in /  34130.9 hPa Calm     96 % 0.0 in /  0 mm
04:47 5.1 °F /  -14.9 °C 4.5 °F /  -15.3 °C 1008.0 in /  34130.9 hPa Calm     96 % 0.0 in /  0 mm
04:50 5.0 °F /  -15 °C 4.4 °F /  -15.3 °C 1008.0 in /  34130.9 hPa Calm     96 % 0.0 in /  0 mm
04:55 4.8 °F /  -15.1 °C 4.2 °F /  -15.4 °C 1008.0 in /  34130.9 hPa Calm     96 % 0.0 in /  0 mm
04:59 4.8 °F /  -15.1 °C 4.2 °F /  -15.4 °C 1008.0 in /  34130.9 hPa Calm     96 % 0.0 in /  0 mm
05:04 4.7 °F /  -15.2 °C 4.1 °F /  -15.5 °C 1008.0 in /  34130.9 hPa Calm     96 % 0.0 in /  0 mm
05:09 4.6 °F /  -15.2 °C 4.0 °F /  -15.6 °C 1008.0 in /  34130.9 hPa Calm     96 % 0.0 in /  0 mm
05:14 4.5 °F /  -15.3 °C 3.9 °F /  -15.6 °C 1008.0 in /  34130.9 hPa Calm     96 % 0.0 in /  0 mm
05:18 4.4 °F /  -15.3 °C 3.8 °F /  -15.7 °C 1008.0 in /  34130.9 hPa Calm     96 % 0.0 in /  0 mm
05:23 4.3 °F /  -15.4 °C 3.7 °F /  -15.7 °C 1008.0 in /  34130.9 hPa Calm     96 % 0.0 in /  0 mm
05:29 4.4 °F /  -15.3 °C 3.8 °F /  -15.7 °C 1009.0 in /  34164.7 hPa WNW 1.0 mph /  1.6 km/h 5.0 mph /  8 km/h 96 % 0.0 in /  0 mm
05:34 4.4 °F /  -15.3 °C 3.8 °F /  -15.7 °C 1009.0 in /  34164.7 hPa WNW 1.1 mph /  1.8 km/h 5.0 mph /  8 km/h 96 % 0.0 in /  0 mm
05:39 4.3 °F /  -15.4 °C 3.7 °F /  -15.7 °C 1009.0 in /  34164.7 hPa Calm     96 % 0.0 in /  0 mm
05:44 4.3 °F /  -15.4 °C 3.7 °F /  -15.7 °C 1009.0 in /  34164.7 hPa Calm     96 % 0.0 in /  0 mm
05:49 4.4 °F /  -15.3 °C 3.8 °F /  -15.7 °C 1009.0 in /  34164.7 hPa Calm     96 % 0.0 in /  0 mm
05:54 4.4 °F /  -15.3 °C 3.8 °F /  -15.7 °C 1009.0 in /  34164.7 hPa Calm     96 % 0.0 in /  0 mm
05:57 4.4 °F /  -15.3 °C 3.8 °F /  -15.7 °C 1009.0 in /  34164.7 hPa WNW 0.2 mph /  0.3 km/h 4.0 mph /  6.4 km/h 96 % 0.0 in /  0 mm
06:02 4.4 °F /  -15.3 °C 3.8 °F /  -15.7 °C 1008.0 in /  34130.9 hPa WNW 0.3 mph /  0.5 km/h 4.0 mph /  6.4 km/h 96 % 0.0 in /  0 mm
06:08 4.4 °F /  -15.3 °C 3.9 °F /  -15.6 °C 1008.0 in /  34130.9 hPa NNW 0.6 mph /  1 km/h 4.3 mph /  6.9 km/h 97 % 0.0 in /  0 mm
06:13 4.5 °F /  -15.3 °C 4.1 °F /  -15.5 °C 1009.0 in /  34164.7 hPa NNW 0.6 mph /  1 km/h 4.3 mph /  6.9 km/h 97 % 0.0 in /  0 mm
06:18 4.6 °F /  -15.2 °C 4.2 °F /  -15.4 °C 1009.0 in /  34164.7 hPa Calm     97 % 0.0 in /  0 mm
06:23 4.6 °F /  -15.2 °C 4.2 °F /  -15.4 °C 1009.0 in /  34164.7 hPa Calm   4.3 mph /  6.9 km/h 97 % 0.0 in /  0 mm
06:28 4.5 °F /  -15.3 °C 4.1 °F /  -15.5 °C 1009.0 in /  34164.7 hPa West 0.5 mph /  0.8 km/h 4.3 mph /  6.9 km/h 97 % 0.0 in /  0 mm
06:33 4.5 °F /  -15.3 °C 4.1 °F /  -15.5 °C 1009.0 in /  34164.7 hPa WNW 0.8 mph /  1.3 km/h 4.7 mph /  7.6 km/h 97 % 0.0 in /  0 mm
06:35 4.5 °F /  -15.3 °C 4.1 °F /  -15.5 °C 1009.0 in /  34164.7 hPa NW 0.6 mph /  1 km/h 4.7 mph /  7.6 km/h 97 % 0.0 in /  0 mm
06:45 4.6 °F /  -15.2 °C 4.2 °F /  -15.4 °C 1009.0 in /  34164.7 hPa Calm     97 % 0.0 in /  0 mm
06:50 4.5 °F /  -15.3 °C 4.1 °F /  -15.5 °C 1009.0 in /  34164.7 hPa Calm     97 % 0.0 in /  0 mm
06:51 4.5 °F /  -15.3 °C 4.1 °F /  -15.5 °C 1009.0 in /  34164.7 hPa Calm     97 % 0.0 in /  0 mm
06:52 4.5 °F /  -15.3 °C 4.1 °F /  -15.5 °C 1009.0 in /  34164.7 hPa Calm     97 % 0.0 in /  0 mm
06:57 4.5 °F /  -15.3 °C 4.1 °F /  -15.5 °C 1009.0 in /  34164.7 hPa West 0.3 mph /  0.5 km/h 4.0 mph /  6.4 km/h 97 % 0.0 in /  0 mm
06:59 4.4 °F /  -15.3 °C 3.9 °F /  -15.6 °C 1009.0 in /  34164.7 hPa West 0.3 mph /  0.5 km/h 4.0 mph /  6.4 km/h 97 % 0.0 in /  0 mm
07:04 4.4 °F /  -15.3 °C 3.9 °F /  -15.6 °C 1009.0 in /  34164.7 hPa WNW 0.2 mph /  0.3 km/h 3.2 mph /  5.1 km/h 97 % 0.0 in /  0 mm
07:09 4.4 °F /  -15.3 °C 3.9 °F /  -15.6 °C 1009.0 in /  34164.7 hPa WNW 0.2 mph /  0.3 km/h 3.2 mph /  5.1 km/h 97 % 0.0 in /  0 mm
07:10 4.4 °F /  -15.3 °C 3.9 °F /  -15.6 °C 1009.0 in /  34164.7 hPa WNW 0.2 mph /  0.3 km/h 1.8 mph /  2.9 km/h 97 % 0.0 in /  0 mm
07:15 4.3 °F /  -15.4 °C 3.9 °F /  -15.6 °C 1009.0 in /  34164.7 hPa Calm     97 % 0.0 in /  0 mm
07:20 4.3 °F /  -15.4 °C 3.9 °F /  -15.6 °C 1009.0 in /  34164.7 hPa Calm     97 % 0.0 in /  0 mm
07:25 4.3 °F /  -15.4 °C 3.9 °F /  -15.6 °C 1009.0 in /  34164.7 hPa Calm     97 % 0.0 in /  0 mm
07:27 4.3 °F /  -15.4 °C 3.9 °F /  -15.6 °C 1009.0 in /  34164.7 hPa Calm     97 % 0.0 in /  0 mm
07:32 4.3 °F /  -15.4 °C 3.9 °F /  -15.6 °C 1008.0 in /  34130.9 hPa Calm   1.4 mph /  2.3 km/h 97 % 0.0 in /  0 mm
07:37 4.4 °F /  -15.3 °C 3.9 °F /  -15.6 °C 1008.0 in /  34130.9 hPa Calm   1.4 mph /  2.3 km/h 97 % 0.0 in /  0 mm
07:42 4.3 °F /  -15.4 °C 3.9 °F /  -15.6 °C 1008.0 in /  34130.9 hPa Calm     97 % 0.0 in /  0 mm
07:47 4.3 °F /  -15.4 °C 3.9 °F /  -15.6 °C 1008.0 in /  34130.9 hPa Calm     97 % 0.0 in /  0 mm
07:52 4.2 °F /  -15.4 °C 3.8 °F /  -15.7 °C 1008.0 in /  34130.9 hPa Calm     97 % 0.0 in /  0 mm
07:57 4.2 °F /  -15.4 °C 3.8 °F /  -15.7 °C 1008.0 in /  34130.9 hPa Calm   1.8 mph /  2.9 km/h 97 % 0.0 in /  0 mm
08:02 4.3 °F /  -15.4 °C 3.9 °F /  -15.6 °C 1009.0 in /  34164.7 hPa Calm   1.8 mph /  2.9 km/h 97 % 0.0 in /  0 mm
08:07 4.2 °F /  -15.4 °C 3.8 °F /  -15.7 °C 1009.0 in /  34164.7 hPa Calm     97 % 0.0 in /  0 mm
08:11 4.3 °F /  -15.4 °C 3.9 °F /  -15.6 °C 1009.0 in /  34164.7 hPa WSW 0.2 mph /  0.3 km/h 4.0 mph /  6.4 km/h 97 % 0.0 in /  0 mm
08:12 4.3 °F /  -15.4 °C 3.9 °F /  -15.6 °C 1009.0 in /  34164.7 hPa WSW 0.3 mph /  0.5 km/h 4.0 mph /  6.4 km/h 97 % 0.0 in /  0 mm
08:17 4.2 °F /  -15.4 °C 3.8 °F /  -15.7 °C 1009.0 in /  34164.7 hPa WSW 0.3 mph /  0.5 km/h 4.0 mph /  6.4 km/h 97 % 0.0 in /  0 mm
08:23 4.3 °F /  -15.4 °C 3.9 °F /  -15.6 °C 1009.0 in /  34164.7 hPa Calm     97 % 0.0 in /  0 mm
08:26 4.3 °F /  -15.4 °C 3.9 °F /  -15.6 °C 1009.0 in /  34164.7 hPa Calm     97 % 0.0 in /  0 mm
08:31 4.5 °F /  -15.3 °C 4.1 °F /  -15.5 °C 1009.0 in /  34164.7 hPa Calm   1.8 mph /  2.9 km/h 97 % 0.0 in /  0 mm
08:33 4.5 °F /  -15.3 °C 4.1 °F /  -15.5 °C 1009.0 in /  34164.7 hPa Calm   1.8 mph /  2.9 km/h 97 % 0.0 in /  0 mm
08:38 4.6 °F /  -15.2 °C 4.2 °F /  -15.4 °C 1009.0 in /  34164.7 hPa Calm   1.8 mph /  2.9 km/h 97 % 0.0 in /  0 mm
08:42 4.7 °F /  -15.2 °C 4.3 °F /  -15.4 °C 1009.0 in /  34164.7 hPa Calm     97 % 0.0 in /  0 mm
08:47 4.8 °F /  -15.1 °C 4.4 °F /  -15.3 °C 1009.0 in /  34164.7 hPa Calm     97 % 0.0 in /  0 mm
08:52 5.0 °F /  -15 °C 4.6 °F /  -15.2 °C 1009.0 in /  34164.7 hPa Calm     97 % 0.0 in /  0 mm
08:56 5.1 °F /  -14.9 °C 4.7 °F /  -15.2 °C 1009.0 in /  34164.7 hPa Calm     97 % 0.0 in /  0 mm
08:57 5.1 °F /  -14.9 °C 4.7 °F /  -15.2 °C 1010.0 in /  34198.6 hPa Calm     97 % 0.0 in /  0 mm
09:02 5.4 °F /  -14.8 °C 4.9 °F /  -15.1 °C 1010.0 in /  34198.6 hPa Calm     97 % 0.0 in /  0 mm
09:07 5.6 °F /  -14.7 °C 5.2 °F /  -14.9 °C 1010.0 in /  34198.6 hPa Calm     97 % 0.0 in /  0 mm
09:12 5.8 °F /  -14.6 °C 5.3 °F /  -14.8 °C 1010.0 in /  34198.6 hPa Calm     97 % 0.0 in /  0 mm
09:17 6.0 °F /  -14.4 °C 5.6 °F /  -14.7 °C 1010.0 in /  34198.6 hPa Calm     97 % 0.0 in /  0 mm
09:21 6.1 °F /  -14.4 °C 5.7 °F /  -14.6 °C 1010.0 in /  34198.6 hPa Calm     97 % 0.0 in /  0 mm
09:26 6.3 °F /  -14.3 °C 5.8 °F /  -14.6 °C 1010.0 in /  34198.6 hPa Calm     97 % 0.0 in /  0 mm
09:31 6.5 °F /  -14.2 °C 6.1 °F /  -14.4 °C 1011.1 in /  34235.8 hPa Calm     97 % 0.0 in /  0 mm
09:36 6.7 °F /  -14.1 °C 6.3 °F /  -14.3 °C 1011.1 in /  34235.8 hPa SE 0.8 mph /  1.3 km/h 4.7 mph /  7.6 km/h 97 % 0.0 in /  0 mm
09:41 6.8 °F /  -14 °C 6.3 °F /  -14.3 °C 1011.1 in /  34235.8 hPa SE 0.8 mph /  1.3 km/h 4.7 mph /  7.6 km/h 97 % 0.0 in /  0 mm
09:42 6.8 °F /  -14 °C 6.3 °F /  -14.3 °C 1011.1 in /  34235.8 hPa SE 0.8 mph /  1.3 km/h 4.7 mph /  7.6 km/h 97 % 0.0 in /  0 mm
09:47 7.0 °F /  -13.9 °C 6.6 °F /  -14.1 °C 1011.1 in /  34235.8 hPa Calm     97 % 0.0 in /  0 mm
09:52 7.1 °F /  -13.8 °C 6.7 °F /  -14.1 °C 1011.1 in /  34235.8 hPa Calm     97 % 0.0 in /  0 mm
09:57 7.2 °F /  -13.8 °C 6.8 °F /  -14 °C 1011.1 in /  34235.8 hPa Calm     97 % 0.0 in /  0 mm
10:02 7.3 °F /  -13.7 °C 6.8 °F /  -14 °C 1011.1 in /  34235.8 hPa SE 0.3 mph /  0.5 km/h 3.2 mph /  5.1 km/h 97 % 0.0 in /  0 mm
10:07 7.4 °F /  -13.7 °C 6.9 °F /  -13.9 °C 1011.1 in /  34235.8 hPa SE 0.3 mph /  0.5 km/h 3.2 mph /  5.1 km/h 97 % 0.0 in /  0 mm
10:12 7.5 °F /  -13.6 °C 7.1 °F /  -13.8 °C 1011.1 in /  34235.8 hPa SSE 0.2 mph /  0.3 km/h 1.4 mph /  2.3 km/h 97 % 0.0 in /  0 mm
10:17 7.5 °F /  -13.6 °C 7.2 °F /  -13.8 °C 1011.1 in /  34235.8 hPa Calm     98 % 0.0 in /  0 mm
10:22 7.7 °F /  -13.5 °C 7.4 °F /  -13.7 °C 1011.1 in /  34235.8 hPa Calm     98 % 0.0 in /  0 mm
10:28 7.8 °F /  -13.4 °C 7.5 °F /  -13.6 °C 1011.1 in /  34235.8 hPa Calm     98 % 0.0 in /  0 mm
10:33 7.9 °F /  -13.4 °C 7.6 °F /  -13.6 °C 1011.1 in /  34235.8 hPa Calm     98 % 0.0 in /  0 mm
10:38 8.0 °F /  -13.3 °C 7.6 °F /  -13.6 °C 1011.1 in /  34235.8 hPa Calm     97 % 0.0 in /  0 mm
10:40 8.1 °F /  -13.3 °C 7.7 °F /  -13.5 °C 1011.1 in /  34235.8 hPa Calm     97 % 0.0 in /  0 mm
10:45 8.1 °F /  -13.3 °C 7.7 °F /  -13.5 °C 1010.0 in /  34198.6 hPa Calm     97 % 0.0 in /  0 mm
10:50 8.2 °F /  -13.2 °C 7.8 °F /  -13.4 °C 1010.0 in /  34198.6 hPa Calm     97 % 0.0 in /  0 mm
10:56 8.3 °F /  -13.2 °C 8.0 °F /  -13.3 °C 1010.0 in /  34198.6 hPa Calm     98 % 0.0 in /  0 mm
11:01 8.5 °F /  -13.1 °C 8.2 °F /  -13.2 °C 1011.1 in /  34235.8 hPa Calm     98 % 0.0 in /  0 mm
11:07 8.7 °F /  -12.9 °C 8.4 °F /  -13.1 °C 1011.1 in /  34235.8 hPa Calm     98 % 0.0 in /  0 mm
11:12 8.9 °F /  -12.8 °C 8.6 °F /  -13 °C 1011.1 in /  34235.8 hPa Calm     98 % 0.0 in /  0 mm
11:17 9.0 °F /  -12.8 °C 8.7 °F /  -12.9 °C 1011.1 in /  34235.8 hPa Calm     98 % 0.0 in /  0 mm
11:22 9.3 °F /  -12.6 °C 9.0 °F /  -12.8 °C 1011.1 in /  34235.8 hPa Calm     98 % 0.0 in /  0 mm
11:26 9.4 °F /  -12.6 °C 9.1 °F /  -12.7 °C 1011.1 in /  34235.8 hPa Calm     98 % 0.0 in /  0 mm
11:31 9.5 °F /  -12.5 °C 9.2 °F /  -12.7 °C 1011.1 in /  34235.8 hPa Calm     98 % 0.0 in /  0 mm
11:36 9.7 °F /  -12.4 °C 9.4 °F /  -12.6 °C 1011.1 in /  34235.8 hPa Calm     98 % 0.0 in /  0 mm
11:42 9.8 °F /  -12.3 °C 9.5 °F /  -12.5 °C 1011.1 in /  34235.8 hPa Calm     98 % 0.0 in /  0 mm
11:47 9.9 °F /  -12.3 °C 9.6 °F /  -12.4 °C 1011.1 in /  34235.8 hPa Calm     98 % 0.0 in /  0 mm
11:52 10.0 °F /  -12.2 °C 9.7 °F /  -12.4 °C 1011.1 in /  34235.8 hPa Calm     98 % 0.0 in /  0 mm
11:57 10.1 °F /  -12.2 °C 9.8 °F /  -12.3 °C 1011.1 in /  34235.8 hPa Calm     98 % 0.0 in /  0 mm
12:04 10.3 °F /  -12.1 °C 10.0 °F /  -12.2 °C 1011.1 in /  34235.8 hPa Calm     98 % 0.0 in /  0 mm
12:10 10.4 °F /  -12 °C 10.1 °F /  -12.2 °C 1011.1 in /  34235.8 hPa Calm     98 % 0.0 in /  0 mm
12:15 10.5 °F /  -11.9 °C 10.2 °F /  -12.1 °C 1011.1 in /  34235.8 hPa SE 1.3 mph /  2.1 km/h 4.7 mph /  7.6 km/h 98 % 0.0 in /  0 mm
12:26 10.8 °F /  -11.8 °C 10.5 °F /  -11.9 °C 1011.1 in /  34235.8 hPa Calm     98 % 0.0 in /  0 mm
12:31 10.9 °F /  -11.7 °C 10.6 °F /  -11.9 °C 1011.1 in /  34235.8 hPa Calm     98 % 0.0 in /  0 mm
12:36 11.1 °F /  -11.6 °C 10.8 °F /  -11.8 °C 1011.1 in /  34235.8 hPa Calm     98 % 0.0 in /  0 mm
12:42 11.2 °F /  -11.6 °C 10.9 °F /  -11.7 °C 1011.1 in /  34235.8 hPa Calm     98 % 0.0 in /  0 mm
12:47 11.4 °F /  -11.4 °C 11.1 °F /  -11.6 °C 1010.0 in /  34198.6 hPa West 0.2 mph /  0.3 km/h 5.0 mph /  8 km/h 98 % 0.0 in /  0 mm
12:51 11.7 °F /  -11.3 °C 11.4 °F /  -11.4 °C 1010.0 in /  34198.6 hPa WSW 0.6 mph /  1 km/h 5.0 mph /  8 km/h 98 % 0.0 in /  0 mm
12:52 11.7 °F /  -11.3 °C 11.4 °F /  -11.4 °C 1010.0 in /  34198.6 hPa SW 0.8 mph /  1.3 km/h 5.0 mph /  8 km/h 98 % 0.0 in /  0 mm
12:57 11.9 °F /  -11.2 °C 11.6 °F /  -11.3 °C 1011.1 in /  34235.8 hPa SSE 2.3 mph /  3.7 km/h 5.5 mph /  8.9 km/h 98 % 0.0 in /  0 mm
12:58 12.0 °F /  -11.1 °C 11.6 °F /  -11.3 °C 1011.1 in /  34235.8 hPa SSE 2.4 mph /  3.9 km/h 5.5 mph /  8.9 km/h 97 % 0.0 in /  0 mm
13:04 12.1 °F /  -11.1 °C 11.6 °F /  -11.3 °C 1011.1 in /  34235.8 hPa South 2.3 mph /  3.7 km/h 6.4 mph /  10.3 km/h 97 % 0.0 in /  0 mm
13:10 12.4 °F /  -10.9 °C 12.1 °F /  -11.1 °C 1011.1 in /  34235.8 hPa SSW 2.9 mph /  4.7 km/h 7.6 mph /  12.2 km/h 98 % 0.0 in /  0 mm
13:15 12.6 °F /  -10.8 °C 12.3 °F /  -10.9 °C 1010.0 in /  34198.6 hPa SSW 3.2 mph /  5.1 km/h 7.6 mph /  12.2 km/h 98 % 0.0 in /  0 mm
13:17 12.6 °F /  -10.8 °C 12.3 °F /  -10.9 °C 1010.0 in /  34198.6 hPa SSW 2.4 mph /  3.9 km/h 5.8 mph /  9.3 km/h 98 % 0.0 in /  0 mm
13:22 12.7 °F /  -10.7 °C 12.2 °F /  -11 °C 1010.0 in /  34198.6 hPa South 2.4 mph /  3.9 km/h 6.4 mph /  10.3 km/h 97 % 0.0 in /  0 mm
13:23 12.7 °F /  -10.7 °C 12.2 °F /  -11 °C 1010.0 in /  34198.6 hPa South 2.4 mph /  3.9 km/h 6.4 mph /  10.3 km/h 97 % 0.0 in /  0 mm
13:28 12.8 °F /  -10.7 °C 12.3 °F /  -10.9 °C 1009.0 in /  34164.7 hPa South 1.9 mph /  3.1 km/h 6.4 mph /  10.3 km/h 97 % 0.0 in /  0 mm
13:33 12.8 °F /  -10.7 °C 12.3 °F /  -10.9 °C 1009.0 in /  34164.7 hPa SSE 1.3 mph /  2.1 km/h 5.8 mph /  9.3 km/h 97 % 0.0 in /  0 mm
13:38 12.9 °F /  -10.6 °C 12.4 °F /  -10.9 °C 1009.0 in /  34164.7 hPa SSE 1.1 mph /  1.8 km/h 5.8 mph /  9.3 km/h 97 % 0.0 in /  0 mm
13:44 13.0 °F /  -10.6 °C 12.6 °F /  -10.8 °C 1009.0 in /  34164.7 hPa South 1.0 mph /  1.6 km/h 6.1 mph /  9.8 km/h 97 % 0.0 in /  0 mm
13:46 13.1 °F /  -10.5 °C 12.6 °F /  -10.8 °C 1009.0 in /  34164.7 hPa SSW 2.1 mph /  3.4 km/h 6.1 mph /  9.8 km/h 97 % 0.0 in /  0 mm
13:48 13.1 °F /  -10.5 °C 12.6 °F /  -10.8 °C 1009.0 in /  34164.7 hPa SSW 2.6 mph /  4.2 km/h 6.1 mph /  9.8 km/h 97 % 0.0 in /  0 mm
13:53 13.2 °F /  -10.4 °C 12.7 °F /  -10.7 °C 1009.0 in /  34164.7 hPa SW 4.3 mph /  6.9 km/h 9.7 mph /  15.6 km/h 97 % 0.0 in /  0 mm
13:55 13.3 °F /  -10.4 °C 12.7 °F /  -10.7 °C 1009.0 in /  34164.7 hPa SW 4.7 mph /  7.6 km/h 9.7 mph /  15.6 km/h 96 % 0.0 in /  0 mm
14:00 13.3 °F /  -10.4 °C 12.7 °F /  -10.7 °C 1010.0 in /  34198.6 hPa South 5.0 mph /  8 km/h 11.6 mph /  18.7 km/h 96 % 0.0 in /  0 mm
14:05 13.3 °F /  -10.4 °C 12.7 °F /  -10.7 °C 1010.0 in /  34198.6 hPa SSW 6.3 mph /  10.1 km/h 13.0 mph /  20.9 km/h 96 % 0.0 in /  0 mm
14:10 13.3 °F /  -10.4 °C 12.7 °F /  -10.7 °C 1010.0 in /  34198.6 hPa SW 5.5 mph /  8.9 km/h 13.0 mph /  20.9 km/h 96 % 0.0 in /  0 mm
14:15 13.4 °F /  -10.3 °C 12.6 °F /  -10.8 °C 1010.0 in /  34198.6 hPa SSW 4.7 mph /  7.6 km/h 9.3 mph /  15 km/h 95 % 0.0 in /  0 mm
14:21 13.4 °F /  -10.3 °C 12.6 °F /  -10.8 °C 1010.0 in /  34198.6 hPa SSW 5.5 mph /  8.9 km/h 11.1 mph /  17.9 km/h 95 % 0.0 in /  0 mm
14:26 13.5 °F /  -10.3 °C 12.6 °F /  -10.8 °C 1010.0 in /  34198.6 hPa SSW 5.1 mph /  8.2 km/h 11.1 mph /  17.9 km/h 94 % 0.0 in /  0 mm
14:32 13.5 °F /  -10.3 °C 12.4 °F /  -10.9 °C 1010.0 in /  34198.6 hPa SSW 4.3 mph /  6.9 km/h 6.4 mph /  10.3 km/h 93 % 0.0 in /  0 mm
14:37 13.5 °F /  -10.3 °C 12.4 °F /  -10.9 °C 1010.0 in /  34198.6 hPa SW 4.3 mph /  6.9 km/h 10.5 mph /  16.9 km/h 93 % 0.0 in /  0 mm
14:38 13.5 °F /  -10.3 °C 12.4 °F /  -10.9 °C 1010.0 in /  34198.6 hPa SW 4.5 mph /  7.2 km/h 10.5 mph /  16.9 km/h 93 % 0.0 in /  0 mm
14:43 13.5 °F /  -10.3 °C 12.2 °F /  -11 °C 1011.1 in /  34235.8 hPa SW 4.5 mph /  7.2 km/h 10.5 mph /  16.9 km/h 92 % 0.0 in /  0 mm
14:48 13.6 °F /  -10.2 °C 12.2 °F /  -11 °C 1011.1 in /  34235.8 hPa SW 5.3 mph /  8.5 km/h 10.1 mph /  16.3 km/h 91 % 0.0 in /  0 mm
14:53 13.6 °F /  -10.2 °C 12.0 °F /  -11.1 °C 1011.1 in /  34235.8 hPa SW 4.8 mph /  7.7 km/h 10.5 mph /  16.9 km/h 90 % 0.0 in /  0 mm
14:55 13.6 °F /  -10.2 °C 11.8 °F /  -11.2 °C 1011.1 in /  34235.8 hPa SSW 4.8 mph /  7.7 km/h 10.5 mph /  16.9 km/h 89 % 0.0 in /  0 mm
15:01 13.6 °F /  -10.2 °C 11.7 °F /  -11.3 °C 1011.1 in /  34235.8 hPa SW 5.8 mph /  9.3 km/h 10.5 mph /  16.9 km/h 88 % 0.0 in /  0 mm
15:04 13.6 °F /  -10.2 °C 11.7 °F /  -11.3 °C 1011.1 in /  34235.8 hPa SSW 5.8 mph /  9.3 km/h 9.7 mph /  15.6 km/h 88 % 0.0 in /  0 mm
15:09 13.6 °F /  -10.2 °C 11.3 °F /  -11.5 °C 1011.1 in /  34235.8 hPa SSW 4.3 mph /  6.9 km/h 9.0 mph /  14.5 km/h 86 % 0.0 in /  0 mm
15:13 13.6 °F /  -10.2 °C 11.3 °F /  -11.5 °C 1011.1 in /  34235.8 hPa SSW 4.3 mph /  6.9 km/h 9.0 mph /  14.5 km/h 86 % 0.0 in /  0 mm
15:18 13.6 °F /  -10.2 °C 11.1 °F /  -11.6 °C 1011.1 in /  34235.8 hPa SSW 5.1 mph /  8.2 km/h 13.7 mph /  22 km/h 85 % 0.0 in /  0 mm
15:24 13.6 °F /  -10.2 °C 10.9 °F /  -11.7 °C 1011.1 in /  34235.8 hPa South 4.8 mph /  7.7 km/h 11.6 mph /  18.7 km/h 84 % 0.0 in /  0 mm
15:26 13.6 °F /  -10.2 °C 10.8 °F /  -11.8 °C 1011.1 in /  34235.8 hPa South 3.5 mph /  5.6 km/h 8.7 mph /  14 km/h 83 % 0.0 in /  0 mm
15:31 13.6 °F /  -10.2 °C 10.8 °F /  -11.8 °C 1011.1 in /  34235.8 hPa South 4.8 mph /  7.7 km/h 10.1 mph /  16.3 km/h 83 % 0.0 in /  0 mm
15:36 13.7 °F /  -10.2 °C 10.7 °F /  -11.8 °C 1011.1 in /  34235.8 hPa SSW 5.3 mph /  8.5 km/h 10.8 mph /  17.4 km/h 82 % 0.0 in /  0 mm
15:41 13.7 °F /  -10.2 °C 10.5 °F /  -11.9 °C 1011.1 in /  34235.8 hPa SSW 6.9 mph /  11.1 km/h 16.9 mph /  27.2 km/h 81 % 0.0 in /  0 mm
15:44 13.7 °F /  -10.2 °C 10.3 °F /  -12.1 °C 1011.1 in /  34235.8 hPa SSW 8.2 mph /  13.2 km/h 16.9 mph /  27.2 km/h 80 % 0.0 in /  0 mm
15:49 13.8 °F /  -10.1 °C 10.4 °F /  -12 °C 1011.1 in /  34235.8 hPa SSW 7.9 mph /  12.7 km/h 16.9 mph /  27.2 km/h 80 % 0.0 in /  0 mm
15:52 13.8 °F /  -10.1 °C 10.2 °F /  -12.1 °C 1011.1 in /  34235.8 hPa SSW 7.2 mph /  11.6 km/h 12.2 mph /  19.6 km/h 79 % 0.0 in /  0 mm
15:57 13.8 °F /  -10.1 °C 10.1 °F /  -12.2 °C 1011.1 in /  34235.8 hPa SSW 5.8 mph /  9.3 km/h 12.2 mph /  19.6 km/h 78 % 0.0 in /  0 mm
15:59 13.8 °F /  -10.1 °C 10.1 °F /  -12.2 °C 1011.1 in /  34235.8 hPa SSW 5.8 mph /  9.3 km/h 10.8 mph /  17.4 km/h 78 % 0.0 in /  0 mm
16:04 13.8 °F /  -10.1 °C 9.8 °F /  -12.3 °C 1011.1 in /  34235.8 hPa SSW 5.5 mph /  8.9 km/h 10.8 mph /  17.4 km/h 77 % 0.0 in /  0 mm
16:09 13.7 °F /  -10.2 °C 9.6 °F /  -12.4 °C 1011.1 in /  34235.8 hPa SSW 5.3 mph /  8.5 km/h 9.7 mph /  15.6 km/h 76 % 0.0 in /  0 mm
16:14 13.6 °F /  -10.2 °C 9.2 °F /  -12.7 °C 1012.1 in /  34269.7 hPa SSW 5.1 mph /  8.2 km/h 10.5 mph /  16.9 km/h 75 % 0.0 in /  0 mm
16:20 13.4 °F /  -10.3 °C 8.8 °F /  -12.9 °C 1012.1 in /  34269.7 hPa South 4.8 mph /  7.7 km/h 10.5 mph /  16.9 km/h 74 % 0.0 in /  0 mm
16:24 13.3 °F /  -10.4 °C 8.8 °F /  -12.9 °C 1012.1 in /  34269.7 hPa South 5.6 mph /  9 km/h 13.0 mph /  20.9 km/h 74 % 0.0 in /  0 mm
16:29 13.3 °F /  -10.4 °C 8.8 °F /  -12.9 °C 1012.1 in /  34269.7 hPa South 6.4 mph /  10.3 km/h 13.0 mph /  20.9 km/h 74 % 0.0 in /  0 mm
16:33 13.1 °F /  -10.5 °C 8.6 °F /  -13 °C 1012.1 in /  34269.7 hPa SSW 5.6 mph /  9 km/h 10.8 mph /  17.4 km/h 74 % 0.0 in /  0 mm
16:39 12.8 °F /  -10.7 °C 8.3 °F /  -13.2 °C 1012.1 in /  34269.7 hPa SSW 4.5 mph /  7.2 km/h 10.1 mph /  16.3 km/h 74 % 0.0 in /  0 mm
16:44 12.5 °F /  -10.8 °C 7.8 °F /  -13.4 °C 1010.0 in /  34198.6 hPa South 3.7 mph /  6 km/h 6.9 mph /  11.1 km/h 73 % 0.0 in /  0 mm
16:49 12.3 °F /  -10.9 °C 7.6 °F /  -13.6 °C 1010.0 in /  34198.6 hPa South 3.2 mph /  5.1 km/h 10.5 mph /  16.9 km/h 73 % 0.0 in /  0 mm
16:52 12.1 °F /  -11.1 °C 7.4 °F /  -13.7 °C 1010.0 in /  34198.6 hPa South 3.1 mph /  5 km/h 10.5 mph /  16.9 km/h 73 % 0.0 in /  0 mm
16:57 11.6 °F /  -11.3 °C 6.9 °F /  -13.9 °C 1010.0 in /  34198.6 hPa WSW 2.9 mph /  4.7 km/h 10.5 mph /  16.9 km/h 73 % 0.0 in /  0 mm
16:58 11.4 °F /  -11.4 °C 6.7 °F /  -14.1 °C 1011.1 in /  34235.8 hPa West 3.1 mph /  5 km/h 10.5 mph /  16.9 km/h 73 % 0.0 in /  0 mm
17:03 11.0 °F /  -11.7 °C 6.3 °F /  -14.3 °C 1011.1 in /  34235.8 hPa WNW 3.7 mph /  6 km/h 6.1 mph /  9.8 km/h 73 % 0.0 in /  0 mm
17:08 10.7 °F /  -11.8 °C 6.3 °F /  -14.3 °C 1011.1 in /  34235.8 hPa WNW 3.1 mph /  5 km/h 6.1 mph /  9.8 km/h 74 % 0.0 in /  0 mm
17:13 10.3 °F /  -12.1 °C 5.9 °F /  -14.5 °C 1010.0 in /  34198.6 hPa WNW 0.6 mph /  1 km/h 4.3 mph /  6.9 km/h 74 % 0.0 in /  0 mm
17:15 10.2 °F /  -12.1 °C 5.8 °F /  -14.6 °C 1010.0 in /  34198.6 hPa NW 0.5 mph /  0.8 km/h 4.3 mph /  6.9 km/h 74 % 0.0 in /  0 mm
17:20 9.8 °F /  -12.3 °C 5.6 °F /  -14.7 °C 1010.0 in /  34198.6 hPa Calm     75 % 0.0 in /  0 mm
17:26 9.5 °F /  -12.5 °C 5.3 °F /  -14.8 °C 1010.0 in /  34198.6 hPa Calm     75 % 0.0 in /  0 mm
17:31 9.3 °F /  -12.6 °C 5.1 °F /  -14.9 °C 1011.1 in /  34235.8 hPa Calm     75 % 0.0 in /  0 mm
17:36 9.0 °F /  -12.8 °C 5.0 °F /  -15 °C 1011.1 in /  34235.8 hPa West 0.2 mph /  0.3 km/h 3.5 mph /  5.6 km/h 76 % 0.0 in /  0 mm
17:42 8.9 °F /  -12.8 °C 4.9 °F /  -15.1 °C 1011.1 in /  34235.8 hPa West 0.3 mph /  0.5 km/h 1.8 mph /  2.9 km/h 76 % 0.0 in /  0 mm
17:43 8.8 °F /  -12.9 °C 4.8 °F /  -15.1 °C 1011.1 in /  34235.8 hPa West 0.2 mph /  0.3 km/h 1.8 mph /  2.9 km/h 76 % 0.0 in /  0 mm
17:44 8.8 °F /  -12.9 °C 4.8 °F /  -15.1 °C 1011.1 in /  34235.8 hPa West 0.2 mph /  0.3 km/h 1.8 mph /  2.9 km/h 76 % 0.0 in /  0 mm
17:45 8.8 °F /  -12.9 °C 4.8 °F /  -15.1 °C 1010.0 in /  34198.6 hPa West 0.2 mph /  0.3 km/h 1.8 mph /  2.9 km/h 76 % 0.0 in /  0 mm
17:46 8.7 °F /  -12.9 °C 4.9 °F /  -15.1 °C 1010.0 in /  34198.6 hPa West 0.2 mph /  0.3 km/h 1.8 mph /  2.9 km/h 77 % 0.0 in /  0 mm
17:48 8.7 °F /  -12.9 °C 4.9 °F /  -15.1 °C 1010.0 in /  34198.6 hPa West 0.2 mph /  0.3 km/h 1.8 mph /  2.9 km/h 77 % 0.0 in /  0 mm
17:50 8.7 °F /  -12.9 °C 4.9 °F /  -15.1 °C 1010.0 in /  34198.6 hPa Calm     77 % 0.0 in /  0 mm
17:51 8.7 °F /  -12.9 °C 4.9 °F /  -15.1 °C 1010.0 in /  34198.6 hPa Calm     77 % 0.0 in /  0 mm
18:01 8.7 °F /  -12.9 °C 4.9 °F /  -15.1 °C 1010.0 in /  34198.6 hPa Calm     77 % 0.0 in /  0 mm
18:05 8.6 °F /  -13 °C 5.2 °F /  -14.9 °C 1011.1 in /  34235.8 hPa North 0.2 mph /  0.3 km/h   79 % 0.0 in /  0 mm
18:10 8.7 °F /  -12.9 °C 5.4 °F /  -14.8 °C 1011.1 in /  34235.8 hPa Calm     80 % 0.0 in /  0 mm
18:14 8.6 °F /  -13 °C 5.5 °F /  -14.7 °C 1011.1 in /  34235.8 hPa Calm     81 % 0.0 in /  0 mm
18:19 8.6 °F /  -13 °C 5.7 °F /  -14.6 °C 1011.1 in /  34235.8 hPa Calm     82 % 0.0 in /  0 mm
18:24 8.6 °F /  -13 °C 5.7 °F /  -14.6 °C 1011.1 in /  34235.8 hPa Calm     82 % 0.0 in /  0 mm
18:29 8.6 °F /  -13 °C 5.9 °F /  -14.5 °C 1011.1 in /  34235.8 hPa NNW 0.2 mph /  0.3 km/h 4.3 mph /  6.9 km/h 83 % 0.0 in /  0 mm
18:34 8.6 °F /  -13 °C 5.9 °F /  -14.5 °C 1011.1 in /  34235.8 hPa NW 1.1 mph /  1.8 km/h 4.3 mph /  6.9 km/h 83 % 0.0 in /  0 mm
18:39 8.7 °F /  -12.9 °C 6.2 °F /  -14.3 °C 1011.1 in /  34235.8 hPa NNW 1.4 mph /  2.3 km/h 4.3 mph /  6.9 km/h 84 % 0.0 in /  0 mm
18:44 8.8 °F /  -12.9 °C 6.2 °F /  -14.3 °C 1011.1 in /  34235.8 hPa NNW 1.0 mph /  1.6 km/h 4.3 mph /  6.9 km/h 84 % 0.0 in /  0 mm
18:49 9.0 °F /  -12.8 °C 6.4 °F /  -14.2 °C 1011.1 in /  34235.8 hPa NW 0.5 mph /  0.8 km/h 4.0 mph /  6.4 km/h 84 % 0.0 in /  0 mm
18:52 9.0 °F /  -12.8 °C 6.6 °F /  -14.1 °C 1011.1 in /  34235.8 hPa NW 0.5 mph /  0.8 km/h 4.0 mph /  6.4 km/h 85 % 0.0 in /  0 mm
18:57 9.1 °F /  -12.7 °C 6.7 °F /  -14.1 °C 1012.1 in /  34269.7 hPa WSW 0.3 mph /  0.5 km/h 4.0 mph /  6.4 km/h 85 % 0.0 in /  0 mm
18:59 9.2 °F /  -12.7 °C 6.8 °F /  -14 °C 1012.1 in /  34269.7 hPa West 0.6 mph /  1 km/h 4.0 mph /  6.4 km/h 85 % 0.0 in /  0 mm
19:04 9.2 °F /  -12.7 °C 6.8 °F /  -14 °C 1012.1 in /  34269.7 hPa WNW 0.6 mph /  1 km/h 4.0 mph /  6.4 km/h 85 % 0.0 in /  0 mm
19:05 9.3 °F /  -12.6 °C 7.1 °F /  -13.8 °C 1012.1 in /  34269.7 hPa WNW 0.6 mph /  1 km/h 4.0 mph /  6.4 km/h 86 % 0.0 in /  0 mm
19:10 9.4 °F /  -12.6 °C 7.2 °F /  -13.8 °C 1012.1 in /  34269.7 hPa WNW 2.4 mph /  3.9 km/h 11.6 mph /  18.7 km/h 86 % 0.0 in /  0 mm
19:15 9.5 °F /  -12.5 °C 7.3 °F /  -13.7 °C 1012.1 in /  34269.7 hPa NW 3.4 mph /  5.5 km/h 11.6 mph /  18.7 km/h 86 % 0.0 in /  0 mm
19:20 9.7 °F /  -12.4 °C 7.7 °F /  -13.5 °C 1012.1 in /  34269.7 hPa WNW 2.4 mph /  3.9 km/h 10.5 mph /  16.9 km/h 87 % 0.0 in /  0 mm
19:25 10.1 °F /  -12.2 °C 8.1 °F /  -13.3 °C 1012.1 in /  34269.7 hPa WSW 3.5 mph /  5.6 km/h 10.5 mph /  16.9 km/h 87 % 0.0 in /  0 mm
19:30 10.4 °F /  -12 °C 8.5 °F /  -13.1 °C 1012.1 in /  34269.7 hPa West 4.2 mph /  6.8 km/h 9.3 mph /  15 km/h 88 % 0.0 in /  0 mm
19:34 10.4 °F /  -12 °C 8.5 °F /  -13.1 °C 1012.1 in /  34269.7 hPa West 3.7 mph /  6 km/h 9.3 mph /  15 km/h 88 % 0.0 in /  0 mm
19:40 10.6 °F /  -11.9 °C 8.7 °F /  -12.9 °C 1012.1 in /  34269.7 hPa West 2.4 mph /  3.9 km/h 7.6 mph /  12.2 km/h 88 % 0.0 in /  0 mm
19:42 10.7 °F /  -11.8 °C 8.9 °F /  -12.8 °C 1012.1 in /  34269.7 hPa West 2.1 mph /  3.4 km/h 6.4 mph /  10.3 km/h 89 % 0.0 in /  0 mm
19:48 10.9 °F /  -11.7 °C 9.2 °F /  -12.7 °C 1012.1 in /  34269.7 hPa West 2.6 mph /  4.2 km/h 6.4 mph /  10.3 km/h 89 % 0.0 in /  0 mm
19:53 11.0 °F /  -11.7 °C 9.3 °F /  -12.6 °C 1012.1 in /  34269.7 hPa West 1.6 mph /  2.6 km/h 6.4 mph /  10.3 km/h 89 % 0.0 in /  0 mm
19:54 11.0 °F /  -11.7 °C 9.3 °F /  -12.6 °C 1012.1 in /  34269.7 hPa West 1.9 mph /  3.1 km/h 6.4 mph /  10.3 km/h 89 % 0.0 in /  0 mm
19:59 10.9 °F /  -11.7 °C 9.2 °F /  -12.7 °C 1012.1 in /  34269.7 hPa WNW 2.1 mph /  3.4 km/h 6.4 mph /  10.3 km/h 89 % 0.0 in /  0 mm
20:02 10.9 °F /  -11.7 °C 9.2 °F /  -12.7 °C 1012.1 in /  34269.7 hPa West 2.7 mph /  4.3 km/h 6.4 mph /  10.3 km/h 89 % 0.0 in /  0 mm
20:03 10.9 °F /  -11.7 °C 9.2 °F /  -12.7 °C 1012.1 in /  34269.7 hPa West 2.7 mph /  4.3 km/h 4.7 mph /  7.6 km/h 89 % 0.0 in /  0 mm
20:09 10.9 °F /  -11.7 °C 9.2 °F /  -12.7 °C 1012.1 in /  34269.7 hPa WSW 1.3 mph /  2.1 km/h 4.7 mph /  7.6 km/h 89 % 0.0 in /  0 mm
20:14 10.9 °F /  -11.7 °C 9.2 °F /  -12.7 °C 1012.1 in /  34269.7 hPa WNW 0.5 mph /  0.8 km/h 3.5 mph /  5.6 km/h 89 % 0.0 in /  0 mm
20:15 10.8 °F /  -11.8 °C 9.1 °F /  -12.7 °C 1012.1 in /  34269.7 hPa WNW 0.5 mph /  0.8 km/h 3.5 mph /  5.6 km/h 89 % 0.0 in /  0 mm
20:20 10.7 °F /  -11.8 °C 8.9 °F /  -12.8 °C 1012.1 in /  34269.7 hPa West 0.3 mph /  0.5 km/h 3.2 mph /  5.1 km/h 89 % 0.0 in /  0 mm
20:23 10.5 °F /  -11.9 °C 8.8 °F /  -12.9 °C 1012.1 in /  34269.7 hPa Calm     89 % 0.0 in /  0 mm
20:29 10.4 °F /  -12 °C 8.7 °F /  -12.9 °C 1012.1 in /  34269.7 hPa Calm     89 % 0.0 in /  0 mm
20:32 10.3 °F /  -12.1 °C 8.6 °F /  -13 °C 1012.1 in /  34269.7 hPa Calm     89 % 0.0 in /  0 mm
20:37 10.1 °F /  -12.2 °C 8.4 °F /  -13.1 °C 1012.1 in /  34269.7 hPa Calm     89 % 0.0 in /  0 mm
20:42 10.0 °F /  -12.2 °C 8.3 °F /  -13.2 °C 1012.1 in /  34269.7 hPa Calm     89 % 0.0 in /  0 mm
20:47 10.0 °F /  -12.2 °C 8.3 °F /  -13.2 °C 1012.1 in /  34269.7 hPa Calm     89 % 0.0 in /  0 mm
20:52 9.9 °F /  -12.3 °C 8.2 °F /  -13.2 °C 1012.1 in /  34269.7 hPa Calm     89 % 0.0 in /  0 mm
20:57 9.9 °F /  -12.3 °C 8.2 °F /  -13.2 °C 1012.1 in /  34269.7 hPa Calm     89 % 0.0 in /  0 mm
21:02 9.7 °F /  -12.4 °C 8.0 °F /  -13.3 °C 1013.1 in /  34303.6 hPa NW 0.3 mph /  0.5 km/h 3.2 mph /  5.1 km/h 89 % 0.0 in /  0 mm
21:05 9.7 °F /  -12.4 °C 8.0 °F /  -13.3 °C 1013.1 in /  34303.6 hPa NW 0.3 mph /  0.5 km/h 3.2 mph /  5.1 km/h 89 % 0.0 in /  0 mm
21:10 9.7 °F /  -12.4 °C 8.0 °F /  -13.3 °C 1013.1 in /  34303.6 hPa North 0.2 mph /  0.3 km/h   89 % 0.0 in /  0 mm
21:13 9.6 °F /  -12.4 °C 7.9 °F /  -13.4 °C 1013.1 in /  34303.6 hPa Calm     89 % 0.0 in /  0 mm
21:18 9.5 °F /  -12.5 °C 7.9 °F /  -13.4 °C 1013.1 in /  34303.6 hPa Calm   3.2 mph /  5.1 km/h 90 % 0.0 in /  0 mm
21:20 9.4 °F /  -12.6 °C 7.8 °F /  -13.4 °C 1013.1 in /  34303.6 hPa NW 0.3 mph /  0.5 km/h 3.5 mph /  5.6 km/h 90 % 0.0 in /  0 mm
21:25 9.3 °F /  -12.6 °C 7.7 °F /  -13.5 °C 1013.1 in /  34303.6 hPa NW 0.5 mph /  0.8 km/h 3.5 mph /  5.6 km/h 90 % 0.0 in /  0 mm
21:30 9.3 °F /  -12.6 °C 7.7 °F /  -13.5 °C 1013.1 in /  34303.6 hPa NW 0.2 mph /  0.3 km/h 1.8 mph /  2.9 km/h 90 % 0.0 in /  0 mm
21:35 9.3 °F /  -12.6 °C 7.7 °F /  -13.5 °C 1013.1 in /  34303.6 hPa Calm     90 % 0.0 in /  0 mm
21:40 9.1 °F /  -12.7 °C 7.6 °F /  -13.6 °C 1013.1 in /  34303.6 hPa NW 0.3 mph /  0.5 km/h 4.3 mph /  6.9 km/h 90 % 0.0 in /  0 mm
21:43 9.0 °F /  -12.8 °C 7.4 °F /  -13.7 °C 1014.1 in /  34337.4 hPa NW 1.3 mph /  2.1 km/h 4.3 mph /  6.9 km/h 90 % 0.0 in /  0 mm
21:48 8.9 °F /  -12.8 °C 7.3 °F /  -13.7 °C 1014.1 in /  34337.4 hPa NW 1.4 mph /  2.3 km/h 4.3 mph /  6.9 km/h 90 % 0.0 in /  0 mm
21:53 8.8 °F /  -12.9 °C 7.2 °F /  -13.8 °C 1014.1 in /  34337.4 hPa North 0.2 mph /  0.3 km/h   90 % 0.0 in /  0 mm
21:58 8.7 °F /  -12.9 °C 7.2 °F /  -13.8 °C 1013.1 in /  34303.6 hPa Calm     90 % 0.0 in /  0 mm
22:04 8.6 °F /  -13 °C 7.2 °F /  -13.8 °C 1013.1 in /  34303.6 hPa Calm   2.1 mph /  3.4 km/h 91 % 0.0 in /  0 mm
22:06 8.6 °F /  -13 °C 7.2 °F /  -13.8 °C 1013.1 in /  34303.6 hPa Calm   2.1 mph /  3.4 km/h 91 % 0.0 in /  0 mm
22:11 8.5 °F /  -13.1 °C 7.1 °F /  -13.8 °C 1013.1 in /  34303.6 hPa West 0.3 mph /  0.5 km/h 3.5 mph /  5.6 km/h 91 % 0.0 in /  0 mm
22:13 8.5 °F /  -13.1 °C 7.1 °F /  -13.8 °C 1013.1 in /  34303.6 hPa NW 0.3 mph /  0.5 km/h 5.0 mph /  8 km/h 91 % 0.0 in /  0 mm
22:18 8.5 °F /  -13.1 °C 7.1 °F /  -13.8 °C 1013.1 in /  34303.6 hPa NNW 1.6 mph /  2.6 km/h 5.0 mph /  8 km/h 91 % 0.0 in /  0 mm
22:23 8.6 °F /  -13 °C 7.2 °F /  -13.8 °C 1013.1 in /  34303.6 hPa NW 1.9 mph /  3.1 km/h 4.7 mph /  7.6 km/h 91 % 0.0 in /  0 mm
22:28 8.6 °F /  -13 °C 7.2 °F /  -13.8 °C 1012.1 in /  34269.7 hPa NW 0.8 mph /  1.3 km/h 4.7 mph /  7.6 km/h 91 % 0.0 in /  0 mm
22:33 8.6 °F /  -13 °C 7.2 °F /  -13.8 °C 1012.1 in /  34269.7 hPa Calm     91 % 0.0 in /  0 mm
22:38 8.6 °F /  -13 °C 7.4 °F /  -13.7 °C 1012.1 in /  34269.7 hPa Calm   1.8 mph /  2.9 km/h 92 % 0.0 in /  0 mm
22:43 8.6 °F /  -13 °C 7.4 °F /  -13.7 °C 1012.1 in /  34269.7 hPa Calm   5.0 mph /  8 km/h 92 % 0.0 in /  0 mm
22:48 8.6 °F /  -13 °C 7.4 °F /  -13.7 °C 1012.1 in /  34269.7 hPa WNW 0.5 mph /  0.8 km/h 5.0 mph /  8 km/h 92 % 0.0 in /  0 mm
22:53 8.5 °F /  -13.1 °C 7.3 °F /  -13.7 °C 1012.1 in /  34269.7 hPa West 0.5 mph /  0.8 km/h 4.0 mph /  6.4 km/h 92 % 0.0 in /  0 mm
22:58 8.5 °F /  -13.1 °C 7.3 °F /  -13.7 °C 1012.1 in /  34269.7 hPa Calm     92 % 0.0 in /  0 mm
23:03 8.3 °F /  -13.2 °C 7.1 °F /  -13.8 °C 1012.1 in /  34269.7 hPa Calm   2.1 mph /  3.4 km/h 92 % 0.0 in /  0 mm
23:05 8.3 °F /  -13.2 °C 7.1 °F /  -13.8 °C 1012.1 in /  34269.7 hPa Calm   2.1 mph /  3.4 km/h 92 % 0.0 in /  0 mm
23:10 8.1 °F /  -13.3 °C 6.9 °F /  -13.9 °C 1012.1 in /  34269.7 hPa Calm     92 % 0.0 in /  0 mm
23:15 8.0 °F /  -13.3 °C 6.8 °F /  -14 °C 1013.1 in /  34303.6 hPa Calm   2.6 mph /  4.2 km/h 92 % 0.0 in /  0 mm
23:20 7.8 °F /  -13.4 °C 6.6 °F /  -14.1 °C 1013.1 in /  34303.6 hPa West 0.2 mph /  0.3 km/h 2.6 mph /  4.2 km/h 92 % 0.0 in /  0 mm
23:25 7.5 °F /  -13.6 °C 6.3 °F /  -14.3 °C 1013.1 in /  34303.6 hPa West 0.2 mph /  0.3 km/h 1.4 mph /  2.3 km/h 92 % 0.0 in /  0 mm
23:26 7.5 °F /  -13.6 °C 6.3 °F /  -14.3 °C 1013.1 in /  34303.6 hPa Calm     92 % 0.0 in /  0 mm
23:31 7.3 °F /  -13.7 °C 6.1 °F /  -14.4 °C 1013.1 in /  34303.6 hPa Calm     92 % 0.0 in /  0 mm
23:33 7.2 °F /  -13.8 °C 6.0 °F /  -14.4 °C 1013.1 in /  34303.6 hPa Calm     92 % 0.0 in /  0 mm
23:39 7.0 °F /  -13.9 °C 5.8 °F /  -14.6 °C 1013.1 in /  34303.6 hPa Calm     92 % 0.0 in /  0 mm
23:40 7.0 °F /  -13.9 °C 5.8 °F /  -14.6 °C 1013.1 in /  34303.6 hPa Calm     92 % 0.0 in /  0 mm
23:45 6.9 °F /  -13.9 °C 5.8 °F /  -14.6 °C 1013.1 in /  34303.6 hPa Calm     93 % 0.0 in /  0 mm
23:50 6.7 °F /  -14.1 °C 5.7 °F /  -14.6 °C 1013.1 in /  34303.6 hPa Calm     93 % 0.0 in /  0 mm
23:55 6.7 °F /  -14.1 °C 5.7 °F /  -14.6 °C 1013.1 in /  34303.6 hPa Calm     93 % 0.0 in /  0 mm
Vremenska postaja Senovo
Podatki zbrani iz Weather Underground - 3.25 mb

Script developed by  Jim McMurry - jmcmurry@mwt.net Adapted for the template by  Wim van der Kuil - Leuven-Template.eu

Vremenski podatki so objavljeni na:

European Weather Network

WeatherCloud

Weather Underground

AWEKAS

HAMweather, WeatherForYou, PWS Weather

MapView

Geostik

Slovenia weather network

Oprema, ki se uporablja:

Vremenski program
Cumulus

Vremenski server
Asus

Cumulus

Asus